Time;durP1;ratioP1;P1;durP2;ratioP2;P2;SDS_P1;SDS_P2;PMS_P1;PMS_P2;Temp;Humidity;BMP_temperature;BMP_pressure;BME280_temperature;BME280_humidity;BME280_pressure;Samples;Min_cycle;Max_cycle;Signal;HPM_P1;HPM_P2
2023/03/07 00:01:32;;;;;;;8.60;3.20;;;4.10;99.90;;;;;;5065406;28;20044;-77
2023/03/07 00:03:58;;;;;;;4.35;1.40;;;4.10;99.90;;;;;;5064669;28;20328;-77
2023/03/07 00:06:24;;;;;;;10.90;1.23;;;4.10;99.90;;;;;;5066551;28;20081;-77
2023/03/07 00:08:51;;;;;;;4.38;1.20;;;4.10;99.90;;;;;;5064266;28;20048;-77
2023/03/07 00:11:18;;;;;;;8.38;3.53;;;4.10;99.90;;;;;;5065186;28;20094;-77
2023/03/07 00:13:43;;;;;;;4.13;1.92;;;4.10;99.90;;;;;;5066430;28;20076;-77
2023/03/07 00:16:15;;;;;;;5.53;2.33;;;4.10;99.90;;;;;;5064876;28;20087;-77
2023/03/07 00:18:42;;;;;;;6.65;2.10;;;4.10;99.90;;;;;;5048508;28;20120;-77
2023/03/07 00:21:11;;;;;;;13.13;2.70;;;4.10;99.90;;;;;;5065436;28;20044;-77
2023/03/07 00:23:38;;;;;;;11.15;4.45;;;4.10;99.90;;;;;;5065273;28;20044;-77
2023/03/07 00:26:11;;;;;;;6.75;2.33;;;4.10;99.90;;;;;;5064417;28;20551;-77
2023/03/07 00:28:36;;;;;;;;;;;4.20;99.90;;;;;;5060076;28;20429;-77
2023/03/07 00:31:07;;;;;;;2.90;2.60;;;4.10;99.90;;;;;;5045470;28;19928;-78
2023/03/07 00:33:34;;;;;;;2.53;2.17;;;4.10;99.90;;;;;;5046387;28;20068;-78
2023/03/07 00:36:11;;;;;;;6.80;3.38;;;4.10;99.90;;;;;;5045248;28;20045;-78
2023/03/07 00:38:37;;;;;;;6.85;2.72;;;4.10;99.90;;;;;;5048257;28;20040;-78
2023/03/07 00:41:05;;;;;;;6.32;2.30;;;4.20;99.90;;;;;;5065666;28;20037;-78
2023/03/07 00:43:32;;;;;;;5.32;2.70;;;4.20;99.90;;;;;;5066037;28;20044;-76
2023/03/07 00:45:59;;;;;;;5.10;2.20;;;4.20;99.90;;;;;;5066155;28;20063;-76
2023/03/07 00:48:25;;;;;;;14.63;3.25;;;4.20;99.90;;;;;;5064421;28;20046;-76
2023/03/07 00:50:51;;;;;;;3.15;1.23;;;4.20;99.90;;;;;;5063205;28;20170;-76
2023/03/07 00:53:17;;;;;;;6.22;1.45;;;4.20;99.90;;;;;;5047658;28;20052;-76
2023/03/07 00:56:01;;;;;;;2.60;1.52;;;4.10;99.90;;;;;;5064400;28;20075;-76
2023/03/07 00:58:29;;;;;;;8.70;2.17;;;4.20;99.90;;;;;;5066144;28;20052;-76
2023/03/07 01:00:55;;;;;;;4.70;2.13;;;4.10;99.90;;;;;;5065716;28;20051;-76
2023/03/07 01:03:21;;;;;;;6.35;1.73;;;4.10;99.90;;;;;;5065326;28;20048;-75
2023/03/07 01:05:48;;;;;;;4.63;1.38;;;4.10;99.90;;;;;;5062721;28;20060;-76
2023/03/07 01:08:14;;;;;;;23.23;3.97;;;4.10;99.90;;;;;;5065323;28;20037;-76
2023/03/07 01:10:40;;;;;;;3.30;1.58;;;4.20;99.90;;;;;;5064052;28;20159;-76
2023/03/07 01:13:06;;;;;;;2.72;1.83;;;4.10;99.90;;;;;;5047570;28;20044;-76
2023/03/07 01:15:31;;;;;;;5.85;2.00;;;4.10;99.90;;;;;;5064111;28;20028;-77
2023/03/07 01:17:57;;;;;;;3.67;1.75;;;4.10;99.90;;;;;;5064406;28;20040;-76
2023/03/07 01:20:23;;;;;;;6.65;2.67;;;4.10;99.90;;;;;;5046218;28;20439;-75
2023/03/07 01:22:49;;;;;;;3.50;2.03;;;4.00;99.90;;;;;;5064319;28;20847;-76
2023/03/07 01:25:14;;;;;;;7.10;1.60;;;4.00;99.90;;;;;;5064973;28;20136;-76
2023/03/07 01:27:40;;;;;;;3.88;2.78;;;4.00;99.90;;;;;;5064276;28;20047;-76
2023/03/07 01:30:07;;;;;;;1.30;0.88;;;4.00;99.90;;;;;;5063527;28;20094;-76
2023/03/07 01:32:33;;;;;;;1.98;1.63;;;4.00;99.90;;;;;;5047112;28;20039;-76
2023/03/07 01:34:58;;;;;;;4.97;1.98;;;4.00;99.90;;;;;;5053314;28;20424;-76
2023/03/07 01:37:24;;;;;;;4.57;1.52;;;3.90;99.90;;;;;;5044541;28;20039;-76
2023/03/07 01:39:51;;;;;;;3.90;1.67;;;3.90;99.90;;;;;;5058729;28;20060;-75
2023/03/07 01:42:17;;;;;;;3.03;1.92;;;3.80;99.90;;;;;;5063329;28;20056;-76
2023/03/07 01:45:06;;;;;;;2.90;1.42;;;3.90;99.90;;;;;;5063648;28;20716;-76
2023/03/07 01:47:33;;;;;;;3.95;1.17;;;3.80;99.90;;;;;;5065346;28;20044;-76
2023/03/07 01:50:03;;;;;;;3.45;2.45;;;3.90;99.90;;;;;;5064337;28;20090;-76
2023/03/07 01:52:40;;;;;;;6.30;2.65;;;3.90;99.90;;;;;;5065391;28;20047;-76
2023/03/07 01:55:20;;;;;;;4.03;1.23;;;3.80;99.90;;;;;;5063653;28;20044;-76
2023/03/07 01:57:48;;;;;;;4.95;2.10;;;3.90;99.90;;;;;;5063876;28;20074;-75
2023/03/07 02:00:24;;;;;;;3.35;2.00;;;3.90;99.90;;;;;;5063147;28;20774;-76
2023/03/07 02:02:58;;;;;;;6.75;1.70;;;3.90;99.90;;;;;;5063661;28;20044;-76
2023/03/07 02:05:58;;;;;;;3.15;1.52;;;3.90;99.90;;;;;;5062131;28;20048;-75
2023/03/07 02:08:29;;;;;;;6.97;3.65;;;3.90;99.90;;;;;;5037381;28;20099;-76
2023/03/07 02:10:54;;;;;;;14.00;3.28;;;3.90;99.90;;;;;;5044633;28;20041;-76
2023/03/07 02:13:20;;;;;;;3.75;1.65;;;3.90;99.90;;;;;;5043342;28;20051;-76
2023/03/07 02:15:46;;;;;;;1.65;1.40;;;3.90;99.90;;;;;;5044494;28;20049;-76
2023/03/07 02:18:16;;;;;;;3.72;1.67;;;3.90;99.90;;;;;;5046178;28;20128;-76
2023/03/07 02:20:54;;;;;;;2.95;2.28;;;3.90;99.90;;;;;;5045975;28;20102;-76
2023/03/07 02:23:30;;;;;;;2.15;1.13;;;3.90;99.90;;;;;;5048361;28;20045;-76
2023/03/07 02:26:15;;;;;;;8.35;2.10;;;3.80;99.90;;;;;;5048771;28;20304;-76
2023/03/07 02:28:41;;;;;;;6.32;2.10;;;3.80;99.90;;;;;;5048786;28;20049;-76
2023/03/07 02:31:08;;;;;;;2.58;1.55;;;3.70;99.90;;;;;;5046347;28;20040;-76
2023/03/07 02:33:34;;;;;;;3.78;2.03;;;3.70;99.90;;;;;;5046262;28;20087;-76
2023/03/07 02:36:14;;;;;;;7.97;3.22;;;3.70;99.90;;;;;;5046990;28;20080;-76
2023/03/07 02:38:42;;;;;;;8.40;2.28;;;3.60;99.90;;;;;;5054006;28;20048;-75
2023/03/07 02:41:11;;;;;;;9.43;2.13;;;3.60;99.90;;;;;;5066421;28;20040;-76
2023/03/07 02:43:37;;;;;;;9.70;3.00;;;3.60;99.90;;;;;;5066678;28;20488;-76
2023/03/07 02:46:03;;;;;;;15.70;2.83;;;3.60;99.90;;;;;;5065831;28;20041;-76
2023/03/07 02:48:28;;;;;;;11.90;1.80;;;3.60;99.90;;;;;;5066336;28;20051;-75
2023/03/07 02:50:54;;;;;;;2.05;1.45;;;3.50;99.90;;;;;;5067910;28;20045;-76
2023/03/07 02:53:19;;;;;;;5.93;2.47;;;3.60;99.90;;;;;;5066535;28;20053;-76
2023/03/07 02:55:45;;;;;;;5.13;1.75;;;3.50;99.90;;;;;;5066740;28;20044;-76
2023/03/07 02:58:11;;;;;;;14.50;2.75;;;3.50;99.90;;;;;;5049675;28;20563;-76
2023/03/07 03:00:36;;;;;;;9.40;1.10;;;3.50;99.90;;;;;;5066543;28;20048;-76
2023/03/07 03:03:02;;;;;;;4.20;1.88;;;3.50;99.90;;;;;;5065652;28;20040;-76
2023/03/07 03:05:28;;;;;;;1.92;1.13;;;3.50;99.90;;;;;;5067381;28;20045;-75
2023/03/07 03:07:54;;;;;;;1.52;0.95;;;3.40;99.90;;;;;;5066697;28;20067;-75
2023/03/07 03:10:19;;;;;;;3.15;1.00;;;3.40;99.90;;;;;;5067399;28;20133;-75
2023/03/07 03:12:45;;;;;;;5.13;2.13;;;3.40;99.90;;;;;;5049473;28;20408;-76
2023/03/07 03:15:11;;;;;;;1.80;1.25;;;3.40;99.90;;;;;;5067561;28;20047;-75
2023/03/07 03:17:37;;;;;;;12.75;3.65;;;3.40;99.90;;;;;;5067045;28;20072;-76
2023/03/07 03:20:11;;;;;;;3.60;1.70;;;3.30;99.90;;;;;;5065467;28;20091;-75
2023/03/07 03:22:40;;;;;;;4.90;1.45;;;3.40;99.90;;;;;;5066562;28;20496;-76
2023/03/07 03:25:12;;;;;;;12.50;1.40;;;3.30;99.90;;;;;;5065796;28;20145;-75
2023/03/07 03:27:38;;;;;;;4.82;2.28;;;3.30;99.90;;;;;;5049009;28;20045;-76
2023/03/07 03:30:05;;;;;;;3.53;2.00;;;3.30;99.90;;;;;;5067018;28;20072;-76
2023/03/07 03:32:32;;;;;;;2.15;0.98;;;3.30;99.90;;;;;;5065585;28;20052;-76
2023/03/07 03:34:58;;;;;;;3.22;1.52;;;3.30;99.90;;;;;;5065484;28;20098;-75
2023/03/07 03:37:23;;;;;;;2.50;1.33;;;3.30;99.90;;;;;;5066719;28;20040;-75
2023/03/07 03:39:51;;;;;;;7.13;2.42;;;3.30;99.90;;;;;;5048903;28;20744;-76
2023/03/07 03:42:16;;;;;;;3.40;1.52;;;3.30;99.90;;;;;;5028569;28;20045;-75
2023/03/07 03:44:42;;;;;;;5.80;2.10;;;3.30;99.90;;;;;;5045745;28;20048;-75
2023/03/07 03:47:07;;;;;;;6.65;2.40;;;3.30;99.90;;;;;;5056563;28;20045;-75
2023/03/07 03:49:33;;;;;;;3.22;1.65;;;3.30;99.90;;;;;;5048041;28;20066;-75
2023/03/07 03:51:59;;;;;;;5.00;1.65;;;3.30;99.90;;;;;;5065933;28;20040;-75
2023/03/07 03:54:24;;;;;;;1.25;1.10;;;3.30;99.90;;;;;;5067240;28;20047;-75
2023/03/07 03:56:51;;;;;;;2.60;1.63;;;3.30;99.90;;;;;;5065661;28;20074;-75
2023/03/07 03:59:17;;;;;;;3.42;1.90;;;3.30;99.90;;;;;;5066426;28;20040;-75
2023/03/07 04:01:43;;;;;;;1.77;1.13;;;3.40;99.90;;;;;;5065368;28;20048;-76
2023/03/07 04:04:08;;;;;;;6.95;1.65;;;3.40;99.90;;;;;;5063637;28;20132;-76
2023/03/07 04:06:34;;;;;;;1.75;1.27;;;3.40;99.90;;;;;;5061463;28;20049;-75
2023/03/07 04:09:02;;;;;;;2.50;1.17;;;3.40;99.90;;;;;;5046275;28;20044;-76
2023/03/07 04:11:28;;;;;;;10.80;1.90;;;3.40;99.90;;;;;;5046753;28;20056;-75
2023/03/07 04:13:53;;;;;;;5.65;1.70;;;3.40;99.90;;;;;;5045290;28;20037;-75
2023/03/07 04:16:21;;;;;;;2.78;1.52;;;3.40;99.90;;;;;;5046211;28;20195;-75
2023/03/07 04:18:49;;;;;;;4.60;1.52;;;3.50;99.90;;;;;;5045368;28;20045;-75
2023/03/07 04:21:14;;;;;;;3.83;1.00;;;3.40;99.90;;;;;;5046345;28;20044;-75
2023/03/07 04:23:40;;;;;;;4.25;0.98;;;3.40;99.90;;;;;;5046109;28;20513;-75
2023/03/07 04:26:07;;;;;;;4.00;1.38;;;3.40;99.90;;;;;;5046562;28;20041;-75
2023/03/07 04:28:44;;;;;;;6.78;1.67;;;3.40;99.90;;;;;;5044624;28;20111;-75
2023/03/07 04:31:12;;;;;;;3.00;1.17;;;3.40;99.90;;;;;;5044815;28;20057;-75
2023/03/07 04:33:39;;;;;;;4.57;2.25;;;3.40;99.90;;;;;;5027046;28;20118;-75
2023/03/07 04:36:04;;;;;;;15.25;3.65;;;3.40;99.90;;;;;;5045726;28;20087;-76
2023/03/07 04:38:30;;;;;;;2.20;1.90;;;3.40;99.90;;;;;;5064663;28;20040;-76
2023/03/07 04:40:56;;;;;;;3.33;1.67;;;3.40;99.90;;;;;;5064793;28;20117;-75
2023/03/07 04:43:22;;;;;;;3.03;1.27;;;3.40;99.90;;;;;;5047694;28;20048;-75
2023/03/07 04:45:47;;;;;;;13.20;4.60;;;3.40;99.90;;;;;;5065492;28;20044;-75
2023/03/07 04:48:13;;;;;;;6.15;1.90;;;3.30;99.90;;;;;;5064689;28;20048;-75
2023/03/07 04:50:39;;;;;;;18.15;1.75;;;3.30;99.90;;;;;;5063897;28;20401;-76
2023/03/07 04:53:04;;;;;;;3.65;1.70;;;3.30;99.90;;;;;;5064432;28;20098;-75
2023/03/07 04:55:30;;;;;;;6.47;1.35;;;3.40;99.90;;;;;;5065537;28;20053;-76
2023/03/07 04:57:56;;;;;;;8.82;2.08;;;3.30;99.90;;;;;;5064652;28;20400;-75
2023/03/07 05:00:23;;;;;;;18.73;2.45;;;3.30;99.90;;;;;;5065315;28;20040;-75
2023/03/07 05:02:49;;;;;;;2.25;1.58;;;3.40;99.90;;;;;;5066216;28;20028;-75
2023/03/07 05:05:16;;;;;;;11.68;2.28;;;3.40;99.90;;;;;;5045718;28;20056;-75
2023/03/07 05:07:42;;;;;;;2.73;1.30;;;3.40;99.90;;;;;;5048961;28;20044;-76
2023/03/07 05:10:09;;;;;;;2.30;1.30;;;3.40;99.90;;;;;;5043654;28;20033;-76
2023/03/07 05:12:34;;;;;;;5.03;2.33;;;3.40;99.90;;;;;;5044046;28;20125;-75
2023/03/07 05:15:00;;;;;;;4.18;1.20;;;3.40;99.90;;;;;;5045043;28;20124;-76
2023/03/07 05:17:26;;;;;;;9.52;1.40;;;3.40;99.90;;;;;;5045659;28;20087;-75
2023/03/07 05:19:53;;;;;;;3.65;0.90;;;3.40;99.90;;;;;;5043134;28;20072;-75
2023/03/07 05:22:19;;;;;;;1.83;0.80;;;3.40;99.90;;;;;;5044941;28;20037;-75
2023/03/07 05:24:45;;;;;;;1.52;0.80;;;3.30;99.90;;;;;;5043605;28;20447;-75
2023/03/07 05:27:10;;;;;;;4.00;1.98;;;3.40;99.90;;;;;;5045166;28;20041;-75
2023/03/07 05:29:36;;;;;;;1.13;0.70;;;3.40;99.90;;;;;;5045444;28;20877;-75
2023/03/07 05:32:01;;;;;;;2.35;1.40;;;3.40;99.90;;;;;;5043561;28;20067;-75
2023/03/07 05:34:27;;;;;;;1.67;1.17;;;3.40;99.90;;;;;;5044562;28;20095;-75
2023/03/07 05:36:53;;;;;;;5.95;1.80;;;3.30;99.90;;;;;;5045070;28;20041;-75
2023/03/07 05:39:18;;;;;;;2.60;1.65;;;3.30;99.90;;;;;;5026805;28;20524;-75
2023/03/07 05:41:44;;;;;;;3.83;1.83;;;3.30;99.90;;;;;;5054674;28;20396;-75
2023/03/07 05:44:09;;;;;;;2.60;1.20;;;3.20;99.90;;;;;;5063147;28;20052;-75
2023/03/07 05:46:35;;;;;;;2.92;2.17;;;3.20;99.90;;;;;;5065233;28;20036;-75
2023/03/07 05:49:00;;;;;;;13.53;1.93;;;3.20;99.90;;;;;;5063746;28;20098;-75
2023/03/07 05:51:26;;;;;;;2.60;1.63;;;3.20;99.90;;;;;;5064168;28;20501;-75
2023/03/07 05:53:52;;;;;;;3.20;1.97;;;3.20;99.90;;;;;;5068822;28;20527;-75
2023/03/07 05:56:17;;;;;;;2.97;1.20;;;3.20;99.90;;;;;;5069109;28;20037;-75
2023/03/07 05:58:43;;;;;;;1.20;1.08;;;3.20;99.90;;;;;;5068864;28;20048;-75
2023/03/07 06:01:08;;;;;;;2.50;1.50;;;3.20;99.90;;;;;;5068830;28;20036;-76
2023/03/07 06:03:34;;;;;;;2.70;1.00;;;3.20;99.90;;;;;;5067057;28;20056;-75
2023/03/07 06:06:00;;;;;;;1.15;0.80;;;3.20;99.90;;;;;;5067400;28;20053;-77
2023/03/07 06:08:26;;;;;;;7.97;0.68;;;3.10;99.90;;;;;;5068705;28;20036;-77
2023/03/07 06:10:53;;;;;;;1.25;0.95;;;3.00;99.90;;;;;;5066710;28;20568;-77
2023/03/07 06:13:21;;;;;;;0.70;0.70;;;3.00;99.90;;;;;;5060994;28;20037;-77
2023/03/07 06:15:49;;;;;;;2.37;0.83;;;2.90;99.90;;;;;;5060813;28;20631;-77
2023/03/07 06:18:14;;;;;;;0.77;0.65;;;2.80;99.90;;;;;;5066256;28;20047;-77
2023/03/07 06:20:40;;;;;;;0.50;0.50;;;2.80;99.90;;;;;;5067270;28;20037;-77
2023/03/07 06:23:06;;;;;;;6.93;1.00;;;2.80;99.90;;;;;;5050347;28;20488;-77
2023/03/07 06:25:32;;;;;;;0.55;0.55;;;2.80;99.90;;;;;;5068423;28;20045;-77
2023/03/07 06:27:59;;;;;;;4.63;0.77;;;2.80;99.90;;;;;;5067592;28;20044;-77
2023/03/07 06:30:26;;;;;;;1.25;0.68;;;2.80;99.90;;;;;;5067109;28;20080;-77
2023/03/07 06:32:51;;;;;;;5.40;2.50;;;2.80;99.90;;;;;;5067823;28;20047;-76
2023/03/07 06:35:17;;;;;;;1.67;1.58;;;2.80;99.90;;;;;;5057424;28;20048;-79
2023/03/07 06:37:43;;;;;;;1.27;0.80;;;2.80;99.90;;;;;;5060370;28;20197;-77
2023/03/07 06:40:09;;;;;;;2.90;1.30;;;2.80;99.90;;;;;;5055469;28;20044;-77
2023/03/07 06:42:35;;;;;;;2.93;1.43;;;2.80;99.90;;;;;;5061659;28;20037;-77
2023/03/07 06:45:01;;;;;;;2.70;1.23;;;2.80;99.90;;;;;;5051961;28;20047;-76
2023/03/07 06:47:26;;;;;;;5.87;2.53;;;2.80;99.90;;;;;;5040014;28;20132;-77
2023/03/07 06:49:52;;;;;;;2.00;1.40;;;2.80;99.90;;;;;;5029388;28;20041;-78
2023/03/07 06:52:18;;;;;;;2.90;1.20;;;2.80;99.90;;;;;;5062235;28;20597;-77
2023/03/07 06:54:44;;;;;;;11.27;1.40;;;2.80;99.90;;;;;;5059006;28;20093;-78
2023/03/07 06:57:09;;;;;;;3.10;1.40;;;2.80;99.90;;;;;;5064126;28;20049;-78
2023/03/07 06:59:35;;;;;;;2.43;0.80;;;2.80;99.90;;;;;;5061916;28;20039;-78
2023/03/07 07:02:02;;;;;;;6.70;2.00;;;2.80;99.90;;;;;;5047120;28;20543;-78
2023/03/07 07:04:28;;;;;;;2.63;0.80;;;2.80;99.90;;;;;;5050889;28;20088;-77
2023/03/07 07:06:54;;;;;;;1.05;0.63;;;2.80;99.90;;;;;;5065878;28;20052;-77
2023/03/07 07:09:19;;;;;;;6.33;1.43;;;2.80;99.90;;;;;;5055242;28;20451;-87
2023/03/07 07:11:45;;;;;;;7.80;1.20;;;2.80;99.90;;;;;;5055087;28;20421;-77
2023/03/07 07:14:10;;;;;;;1.27;1.17;;;2.80;99.90;;;;;;5029180;28;20499;-77
2023/03/07 07:16:36;;;;;;;1.43;0.77;;;2.80;99.90;;;;;;5044414;28;20052;-78
2023/03/07 07:19:02;;;;;;;1.10;0.75;;;2.80;99.90;;;;;;5043176;28;20371;-77
2023/03/07 07:21:27;;;;;;;2.53;0.77;;;2.80;99.90;;;;;;5046481;28;20084;-77
2023/03/07 07:23:56;;;;;;;3.92;0.88;;;2.80;99.90;;;;;;5057264;28;20051;-77
2023/03/07 07:26:23;;;;;;;1.70;1.00;;;2.80;99.90;;;;;;5066784;28;20041;-77
2023/03/07 07:28:49;;;;;;;4.63;1.27;;;2.80;99.90;;;;;;5051310;28;20071;-78
2023/03/07 07:31:14;;;;;;;9.07;1.00;;;2.90;99.90;;;;;;5065243;28;20043;-77
2023/03/07 07:33:40;;;;;;;5.13;2.17;;;2.90;99.90;;;;;;5033740;28;20036;-78
2023/03/07 07:36:06;;;;;;;0.83;0.83;;;2.90;99.90;;;;;;5029325;28;20044;-78
2023/03/07 07:38:32;;;;;;;2.80;1.17;;;2.90;99.90;;;;;;5028726;28;20041;-77
2023/03/07 07:40:58;;;;;;;7.37;1.57;;;2.90;99.90;;;;;;5061526;28;20098;-79
2023/03/07 07:43:23;;;;;;;12.33;2.63;;;3.00;99.90;;;;;;5039620;28;20029;-78
2023/03/07 07:45:49;;;;;;;4.13;1.80;;;3.00;99.90;;;;;;5054868;28;20110;-78
2023/03/07 07:48:15;;;;;;;1.93;1.17;;;3.00;99.90;;;;;;5058989;28;20097;-78
2023/03/07 07:50:41;;;;;;;6.03;1.52;;;3.00;99.90;;;;;;5066915;28;20040;-78
2023/03/07 07:53:06;;;;;;;2.77;1.97;;;3.10;99.90;;;;;;5047390;28;20124;-78
2023/03/07 07:55:32;;;;;;;11.50;2.17;;;3.10;99.90;;;;;;5057047;28;20115;-78
2023/03/07 07:57:58;;;;;;;2.17;1.17;;;3.10;99.90;;;;;;5065383;28;20041;-77
2023/03/07 08:00:23;;;;;;;3.28;0.90;;;3.10;99.90;;;;;;5063915;28;20037;-78
2023/03/07 08:02:50;;;;;;;3.60;2.20;;;3.20;99.90;;;;;;5064136;28;20419;-77
2023/03/07 08:05:17;;;;;;;3.25;1.20;;;3.20;99.90;;;;;;5064604;28;20048;-77
2023/03/07 08:07:43;;;;;;;2.40;1.52;;;3.20;99.90;;;;;;5052960;28;20077;-78
2023/03/07 08:10:10;;;;;;;4.43;1.73;;;3.20;99.90;;;;;;5045812;28;20405;-78
2023/03/07 08:12:36;;;;;;;3.70;1.20;;;3.30;99.90;;;;;;5054970;28;20430;-77
2023/03/07 08:15:02;;;;;;;2.47;0.90;;;3.30;99.90;;;;;;5061451;28;20047;-76
2023/03/07 08:17:29;;;;;;;4.43;1.35;;;3.30;99.90;;;;;;5064057;28;20036;-77
2023/03/07 08:19:54;;;;;;;2.80;0.93;;;3.30;99.90;;;;;;5086137;28;20040;-77
2023/03/07 08:22:20;;;;;;;1.50;0.98;;;3.40;99.90;;;;;;5084162;28;20056;-78
2023/03/07 08:24:46;;;;;;;1.10;0.80;;;3.30;99.90;;;;;;5083877;28;20036;-77
2023/03/07 08:27:12;;;;;;;0.57;0.57;;;3.20;99.90;;;;;;5085323;28;20155;-77
2023/03/07 08:29:37;;;;;;;3.23;1.37;;;3.10;99.90;;;;;;5085769;28;20111;-77
2023/03/07 08:32:03;;;;;;;1.27;0.73;;;3.10;99.90;;;;;;5085123;28;20052;-78
2023/03/07 08:34:32;;;;;;;5.60;1.83;;;3.10;99.90;;;;;;5083633;28;20040;-77
2023/03/07 08:36:57;;;;;;;1.10;0.87;;;3.10;99.90;;;;;;5067172;28;20044;-78
2023/03/07 08:39:23;;;;;;;3.23;1.07;;;3.00;99.90;;;;;;5084097;28;20048;-77
2023/03/07 08:41:49;;;;;;;5.13;2.88;;;3.00;99.90;;;;;;5085054;28;20296;-78
2023/03/07 08:44:14;;;;;;;0.75;0.75;;;3.00;99.90;;;;;;5084281;28;20511;-78
2023/03/07 08:46:40;;;;;;;1.80;1.05;;;3.00;99.90;;;;;;5039865;28;20043;-78
2023/03/07 08:49:05;;;;;;;1.92;1.20;;;3.00;99.90;;;;;;5064342;28;20688;-78
2023/03/07 08:51:31;;;;;;;3.35;1.95;;;3.00;99.90;;;;;;5063290;28;20040;-77
2023/03/07 08:53:57;;;;;;;5.53;1.23;;;3.00;99.90;;;;;;5049990;28;20472;-79
2023/03/07 08:56:23;;;;;;;2.40;0.80;;;2.90;99.90;;;;;;5047910;28;20068;-77
2023/03/07 08:58:52;;;;;;;2.88;1.15;;;3.00;99.90;;;;;;5045502;28;20079;-79
2023/03/07 09:01:18;;;;;;;2.75;2.20;;;3.00;99.90;;;;;;5058341;28;20044;-76
2023/03/07 09:03:44;;;;;;;2.88;1.38;;;2.90;99.90;;;;;;5058195;28;20397;-76
2023/03/07 09:06:16;;;;;;;1.50;1.40;;;3.00;99.90;;;;;;5063271;28;20040;-76
2023/03/07 09:08:41;;;;;;;1.98;1.08;;;3.00;99.90;;;;;;5055579;28;20112;-79
2023/03/07 09:11:07;;;;;;;1.55;0.90;;;3.10;99.90;;;;;;5043204;28;20124;-78
2023/03/07 09:13:33;;;;;;;3.63;1.35;;;3.10;99.90;;;;;;5057164;28;20047;-77
2023/03/07 09:15:58;;;;;;;3.90;1.37;;;3.10;99.90;;;;;;5063697;28;20047;-77
2023/03/07 09:18:24;;;;;;;2.22;0.90;;;3.10;99.90;;;;;;5064205;28;20049;-77
2023/03/07 09:20:50;;;;;;;4.72;1.98;;;3.10;99.90;;;;;;5063808;28;20135;-77
2023/03/07 09:23:15;;;;;;;2.10;1.95;;;3.20;99.90;;;;;;5048575;28;20072;-76
2023/03/07 09:25:41;;;;;;;2.72;1.20;;;3.20;99.90;;;;;;5063584;28;20041;-76
2023/03/07 09:28:06;;;;;;;5.00;2.80;;;3.20;99.90;;;;;;5063960;28;20045;-77
2023/03/07 09:30:32;;;;;;;3.25;1.58;;;3.20;99.90;;;;;;5045481;28;20529;-77
2023/03/07 09:32:57;;;;;;;12.82;2.10;;;3.20;99.90;;;;;;5063527;28;20044;-77
2023/03/07 09:35:24;;;;;;;3.08;1.33;;;3.20;99.90;;;;;;5064282;28;20377;-77
2023/03/07 09:37:50;;;;;;;4.57;1.63;;;3.30;99.90;;;;;;5064290;28;20037;-76
2023/03/07 09:40:19;;;;;;;7.00;2.17;;;3.20;99.90;;;;;;5051501;28;20029;-77
2023/03/07 09:43:03;;;;;;;1.90;1.27;;;3.30;99.90;;;;;;5052767;28;20036;-76
2023/03/07 09:45:41;;;;;;;7.53;1.77;;;3.40;99.90;;;;;;5065706;28;20074;-77
2023/03/07 09:48:41;;;;;;;1.85;1.73;;;3.40;99.90;;;;;;5043104;28;20045;-76
2023/03/07 09:51:30;;;;;;;18.73;2.28;;;3.50;99.90;;;;;;5054745;28;20045;-77
2023/03/07 09:54:01;;;;;;;1.75;1.00;;;3.50;99.90;;;;;;5026551;28;20072;-77
2023/03/07 09:56:58;;;;;;;4.10;1.20;;;3.60;99.90;;;;;;5054853;28;20053;-77
2023/03/07 09:59:46;;;;;;;4.88;1.95;;;3.60;99.90;;;;;;5062814;28;20049;-76
2023/03/07 10:02:35;;;;;;;6.15;1.55;;;3.50;99.90;;;;;;5030418;28;20056;-77
2023/03/07 10:05:25;;;;;;;1.23;0.93;;;3.50;99.90;;;;;;5039691;28;20099;-77
2023/03/07 10:07:53;;;;;;;2.20;1.00;;;3.40;99.90;;;;;;5050482;28;20057;-78
2023/03/07 10:10:27;;;;;;;2.80;0.77;;;3.30;99.90;;;;;;5050671;28;20041;-77
2023/03/07 10:13:01;;;;;;;3.60;1.17;;;3.30;99.90;;;;;;5062038;28;20083;-77
2023/03/07 10:15:50;;;;;;;8.88;1.58;;;3.30;99.90;;;;;;5060888;28;20252;-76
2023/03/07 10:18:53;;;;;;;1.92;1.70;;;3.30;99.90;;;;;;5059571;28;20048;-77
2023/03/07 10:21:38;;;;;;;1.27;0.70;;;3.30;99.90;;;;;;5061336;28;20124;-77
2023/03/07 10:24:25;;;;;;;1.38;0.93;;;3.30;99.90;;;;;;5061604;28;20106;-77
2023/03/07 10:27:09;;;;;;;6.50;1.90;;;3.30;99.90;;;;;;5061240;28;20053;-76
2023/03/07 10:29:50;;;;;;;1.83;1.13;;;3.40;99.90;;;;;;5062138;28;20036;-77
2023/03/07 10:32:42;;;;;;;4.50;2.00;;;3.40;99.90;;;;;;5060994;28;20161;-76
2023/03/07 10:35:10;;;;;;;6.15;1.20;;;3.40;99.90;;;;;;5060044;28;20637;-77
2023/03/07 10:37:53;;;;;;;5.22;1.17;;;3.40;99.90;;;;;;5061798;28;20094;-76
2023/03/07 10:40:33;;;;;;;1.73;1.05;;;3.50;99.90;;;;;;5065342;28;20562;-76
2023/03/07 10:42:59;;;;;;;7.30;1.48;;;3.50;99.90;;;;;;5065671;28;20412;-77
2023/03/07 10:45:29;;;;;;;4.22;1.50;;;3.50;99.90;;;;;;5057043;28;20044;-79
2023/03/07 10:47:57;;;;;;;8.48;2.63;;;3.50;99.90;;;;;;5058649;28;20051;-76
2023/03/07 10:50:34;;;;;;;6.80;1.13;;;3.50;99.90;;;;;;5055446;28;20048;-77
2023/03/07 10:53:03;;;;;;;9.88;1.23;;;3.50;99.90;;;;;;5077673;28;20145;-78
2023/03/07 10:55:28;;;;;;;2.58;1.73;;;3.50;99.90;;;;;;5064558;28;20557;-77
2023/03/07 10:58:06;;;;;;;16.15;3.00;;;3.60;99.90;;;;;;5053514;28;20059;-76
2023/03/07 11:00:32;;;;;;;4.50;1.55;;;3.60;99.90;;;;;;5067125;28;20044;-77
2023/03/07 11:02:58;;;;;;;6.40;0.95;;;3.60;99.90;;;;;;5058993;28;20033;-76
2023/03/07 11:05:32;;;;;;;3.40;1.73;;;3.60;99.90;;;;;;5045606;28;20438;-77
2023/03/07 11:07:59;;;;;;;8.90;1.95;;;3.70;99.90;;;;;;5059098;28;20075;-77
2023/03/07 11:10:34;;;;;;;14.25;4.40;;;3.80;99.90;;;;;;5065698;28;20044;-76
2023/03/07 11:13:27;;;;;;;4.00;1.88;;;3.90;99.90;;;;;;5064606;28;20044;-78
2023/03/07 11:16:09;;;;;;;2.83;1.45;;;4.00;99.90;;;;;;5053157;28;20498;-77
2023/03/07 11:18:42;;;;;;;2.22;1.40;;;4.20;99.90;;;;;;5064411;28;20040;-76
2023/03/07 11:21:30;;;;;;;2.35;1.30;;;4.30;99.90;;;;;;5059954;28;20106;-76
2023/03/07 11:24:01;;;;;;;4.35;2.00;;;4.40;99.90;;;;;;5045692;28;20041;-76
2023/03/07 11:26:31;;;;;;;1.85;1.48;;;4.40;99.90;;;;;;5062127;28;20056;-77
2023/03/07 11:29:11;;;;;;;5.00;1.73;;;4.30;99.90;;;;;;5067264;28;20313;-77
2023/03/07 11:31:36;;;;;;;2.25;1.63;;;4.30;99.90;;;;;;5062519;28;20170;-77
2023/03/07 11:34:21;;;;;;;1.63;1.33;;;4.30;99.90;;;;;;5064279;28;20123;-77
2023/03/07 11:36:54;;;;;;;9.55;2.47;;;4.30;99.90;;;;;;5064731;28;20048;-77
2023/03/07 11:39:48;;;;;;;1.80;0.68;;;4.40;99.90;;;;;;5065224;28;20466;-77
2023/03/07 11:42:40;;;;;;;1.38;1.08;;;4.40;99.90;;;;;;5064786;28;20090;-77
2023/03/07 11:45:19;;;;;;;2.13;1.70;;;4.50;99.90;;;;;;5043120;28;20041;-77
2023/03/07 11:47:53;;;;;;;1.10;0.52;;;4.50;99.90;;;;;;5059773;28;20293;-77
2023/03/07 11:50:25;;;;;;;1.55;0.73;;;4.60;99.90;;;;;;5063491;28;20055;-77
2023/03/07 11:53:01;;;;;;;5.85;1.00;;;4.60;99.90;;;;;;5054749;28;20044;-76
2023/03/07 11:55:41;;;;;;;1.73;0.93;;;4.70;99.90;;;;;;5059215;28;20119;-77
2023/03/07 11:58:24;;;;;;;5.15;1.92;;;4.70;99.90;;;;;;5048465;28;20433;-76
2023/03/07 12:01:15;;;;;;;1.65;1.30;;;4.80;99.90;;;;;;5044653;28;20053;-76
2023/03/07 12:03:44;;;;;;;5.88;1.50;;;4.80;99.90;;;;;;5044869;28;20252;-75
2023/03/07 12:06:25;;;;;;;1.27;1.02;;;4.80;99.90;;;;;;5057064;28;20227;-77
2023/03/07 12:09:09;;;;;;;1.83;0.93;;;4.80;99.90;;;;;;5049527;28;20056;-76
2023/03/07 12:11:50;;;;;;;1.27;1.08;;;4.90;99.90;;;;;;5047572;28;20040;-75
2023/03/07 12:14:52;;;;;;;1.25;0.65;;;4.90;99.90;;;;;;5063621;28;20109;-76
2023/03/07 12:17:36;;;;;;;2.70;0.85;;;5.00;99.90;;;;;;5029106;28;20051;-76
2023/03/07 12:20:26;;;;;;;3.03;1.00;;;5.00;99.90;;;;;;5047792;28;20143;-77
2023/03/07 12:22:51;;;;;;;3.15;2.85;;;4.90;99.90;;;;;;5056730;28;20128;-76
2023/03/07 12:25:24;;;;;;;1.45;1.25;;;4.90;99.90;;;;;;5043826;28;20131;-75
2023/03/07 12:28:04;;;;;;;2.20;0.90;;;4.80;99.90;;;;;;5057916;28;20063;-76
2023/03/07 12:30:52;;;;;;;6.05;2.63;;;4.80;99.90;;;;;;5063471;28;20028;-77
2023/03/07 12:33:35;;;;;;;2.17;1.25;;;4.80;99.90;;;;;;5062697;28;20041;-74
2023/03/07 12:36:06;;;;;;;13.98;2.95;;;4.80;99.90;;;;;;5065154;28;20209;-75
2023/03/07 12:39:01;;;;;;;7.05;2.45;;;4.90;99.90;;;;;;5064927;28;20043;-75
2023/03/07 12:41:30;;;;;;;1.35;1.25;;;5.00;99.90;;;;;;5041614;28;20044;-75
2023/03/07 12:44:01;;;;;;;4.53;2.70;;;5.10;99.90;;;;;;5060073;28;20671;-75
2023/03/07 12:46:43;;;;;;;2.05;1.20;;;5.10;99.90;;;;;;5045837;28;20480;-75
2023/03/07 12:49:33;;;;;;;3.42;1.63;;;5.20;99.90;;;;;;5043384;28;20049;-74
2023/03/07 12:52:03;;;;;;;1.98;1.67;;;5.20;99.90;;;;;;5058450;28;20201;-76
2023/03/07 12:54:33;;;;;;;1.40;1.00;;;5.20;99.90;;;;;;5081582;28;20097;-76
2023/03/07 12:57:21;;;;;;;0.95;0.93;;;5.10;99.90;;;;;;5076246;28;20060;-75
2023/03/07 12:59:50;;;;;;;0.93;0.93;;;5.10;99.90;;;;;;5051647;28;20139;-75
2023/03/07 13:02:22;;;;;;;2.47;1.55;;;5.00;99.90;;;;;;5062362;28;20049;-75
2023/03/07 13:04:47;;;;;;;1.30;1.05;;;5.00;99.90;;;;;;5062427;28;20055;-77
2023/03/07 13:07:30;;;;;;;1.02;0.93;;;5.00;99.90;;;;;;5047937;28;20476;-76
2023/03/07 13:09:58;;;;;;;1.45;1.30;;;5.00;99.90;;;;;;5048590;28;20069;-75